Time;durP1;ratioP1;P1;durP2;ratioP2;P2;SDS_P1;SDS_P2;PMS_P1;PMS_P2;Temp;Humidity;BMP_temperature;BMP_pressure;BME280_temperature;BME280_humidity;BME280_pressure;Samples;Min_cycle;Max_cycle;Signal;HPM_P1;HPM_P2
2023/08/17 00:02:32;;;;;;;3.28;0.80;;;;;;;18.36;100.00;101759.53;6300669;28;20059;-74
2023/08/17 00:05:33;;;;;;;3.30;1.42;;;;;;;18.33;100.00;101750.91;6300178;28;20045;-74
2023/08/17 00:08:35;;;;;;;5.50;0.95;;;;;;;18.31;100.00;101747.53;6300425;28;20048;-74
2023/08/17 00:11:36;;;;;;;1.95;1.10;;;;;;;18.32;100.00;101744.75;6300268;28;20061;-73
2023/08/17 00:14:39;;;;;;;2.42;1.20;;;;;;;18.33;100.00;101748.25;6299978;28;20074;-74
2023/08/17 00:17:40;;;;;;;2.05;0.88;;;;;;;18.38;100.00;101751.44;6300035;28;20056;-74
2023/08/17 00:20:42;;;;;;;1.45;0.90;;;;;;;18.34;100.00;101745.47;6300385;28;20052;-73
2023/08/17 00:23:43;;;;;;;3.53;1.20;;;;;;;18.31;100.00;101735.06;6300030;28;20355;-74
2023/08/17 00:26:44;;;;;;;1.65;1.30;;;;;;;18.30;100.00;101729.84;6299997;28;20045;-74
2023/08/17 00:29:47;;;;;;;1.58;0.93;;;;;;;18.25;100.00;101722.16;6300045;28;20052;-73
2023/08/17 00:32:49;;;;;;;2.47;1.00;;;;;;;18.21;100.00;101723.34;6300358;28;20048;-73
2023/08/17 00:35:50;;;;;;;4.82;1.00;;;;;;;18.20;100.00;101717.16;6299826;28;20060;-73
2023/08/17 00:38:51;;;;;;;4.60;1.23;;;;;;;18.22;100.00;101717.94;6299711;28;20040;-74
2023/08/17 00:41:53;;;;;;;1.48;1.00;;;;;;;18.24;100.00;101717.81;6300039;28;20056;-74
2023/08/17 00:44:55;;;;;;;3.25;1.00;;;;;;;18.24;100.00;101715.16;6299642;28;20052;-73
2023/08/17 00:47:58;;;;;;;1.75;1.10;;;;;;;18.22;100.00;101719.75;6300018;28;20047;-74
2023/08/17 00:51:00;;;;;;;2.60;1.08;;;;;;;18.18;100.00;101712.94;6299491;28;20048;-73
2023/08/17 00:54:02;;;;;;;3.47;0.90;;;;;;;18.17;100.00;101719.22;6299512;28;20049;-73
2023/08/17 00:57:06;;;;;;;1.08;0.90;;;;;;;18.16;100.00;101720.16;6299956;28;20049;-74
2023/08/17 01:00:11;;;;;;;4.10;0.90;;;;;;;18.17;100.00;101716.56;6304688;28;20177;-73
2023/08/17 01:03:13;;;;;;;1.17;0.80;;;;;;;18.14;100.00;101719.44;6304300;28;20052;-74
2023/08/17 01:06:14;;;;;;;3.35;1.10;;;;;;;18.10;100.00;101718.78;6304274;28;20089;-74
2023/08/17 01:09:16;;;;;;;4.07;1.17;;;;;;;18.11;100.00;101720.47;6304230;28;20044;-73
2023/08/17 01:12:26;;;;;;;3.05;1.35;;;;;;;18.09;100.00;101727.72;6304081;28;20056;-74
2023/08/17 01:15:35;;;;;;;4.60;1.30;;;;;;;18.09;100.00;101722.41;6303905;28;20048;-74
2023/08/17 01:18:41;;;;;;;4.38;0.90;;;;;;;18.10;100.00;101715.28;6304181;28;20053;-74
2023/08/17 01:21:50;;;;;;;2.75;1.10;;;;;;;18.09;100.00;101717.09;6304213;28;20055;-74
2023/08/17 01:24:57;;;;;;;5.53;1.35;;;;;;;18.03;100.00;101712.16;6303878;28;20048;-73
2023/08/17 01:27:58;;;;;;;6.50;1.50;;;;;;;18.03;100.00;101712.16;6303362;28;20437;-74
2023/08/17 01:31:06;;;;;;;1.05;1.00;;;;;;;18.03;100.00;101704.19;6302537;28;20428;-74
2023/08/17 01:34:12;;;;;;;4.63;1.20;;;;;;;18.02;100.00;101705.16;6303379;28;20363;-74
2023/08/17 01:37:19;;;;;;;3.42;1.05;;;;;;;18.02;100.00;101709.63;6300164;28;20049;-74
2023/08/17 01:40:23;;;;;;;4.35;1.23;;;;;;;17.99;100.00;101708.91;6303550;28;20059;-73
2023/08/17 01:43:25;;;;;;;3.08;1.05;;;;;;;18.00;100.00;101713.25;6303092;28;20052;-74
2023/08/17 01:46:31;;;;;;;1.00;0.90;;;;;;;18.04;100.00;101710.38;6303271;28;20055;-74
2023/08/17 01:49:32;;;;;;;1.05;0.93;;;;;;;18.03;100.00;101703.34;6303304;28;20052;-74
2023/08/17 01:52:34;;;;;;;1.98;1.02;;;;;;;18.04;100.00;101705.06;6303180;28;20433;-74
2023/08/17 01:55:37;;;;;;;3.85;0.90;;;;;;;18.03;100.00;101709.50;6302797;28;20052;-73
2023/08/17 01:58:39;;;;;;;1.63;0.85;;;;;;;17.98;100.00;101703.66;6303019;28;20080;-74
2023/08/17 02:01:40;;;;;;;2.35;0.95;;;;;;;17.98;100.00;101699.19;6303345;28;20060;-74
2023/08/17 02:04:41;;;;;;;1.55;0.85;;;;;;;17.97;100.00;101702.81;6303048;28;20045;-74
2023/08/17 02:07:43;;;;;;;1.73;1.08;;;;;;;18.00;100.00;101705.28;6302685;28;20356;-74
2023/08/17 02:10:45;;;;;;;2.10;1.10;;;;;;;18.00;100.00;101702.59;6302982;28;20048;-74
2023/08/17 02:13:47;;;;;;;2.50;0.85;;;;;;;17.98;100.00;101712.50;6302783;28;20063;-73
2023/08/17 02:16:48;;;;;;;1.58;0.93;;;;;;;18.00;100.00;101707.94;6301398;28;20052;-74
2023/08/17 02:19:50;;;;;;;3.90;0.98;;;;;;;18.05;100.00;101709.41;6302740;28;20045;-74
2023/08/17 02:22:51;;;;;;;12.93;1.38;;;;;;;18.02;100.00;101701.66;6302560;28;20459;-74
2023/08/17 02:25:54;;;;;;;3.42;1.08;;;;;;;17.99;100.00;101700.91;6302214;28;20045;-74
2023/08/17 02:28:55;;;;;;;2.50;1.52;;;;;;;18.00;100.00;101705.28;6302415;28;20041;-74
2023/08/17 02:31:57;;;;;;;1.35;1.10;;;;;;;18.00;100.00;101702.59;6300884;28;20056;-74
2023/08/17 02:34:58;;;;;;;3.35;1.13;;;;;;;17.99;100.00;101695.59;6301105;28;20049;-74
2023/08/17 02:37:59;;;;;;;1.40;0.90;;;;;;;18.00;100.00;101691.13;6302008;28;20048;-74
2023/08/17 02:41:02;;;;;;;2.30;1.13;;;;;;;18.00;100.00;101689.31;6302032;28;20045;-74
2023/08/17 02:44:04;;;;;;;15.48;1.10;;;;;;;17.96;100.00;101693.13;6301504;28;20044;-74
2023/08/17 02:47:06;;;;;;;2.95;1.17;;;;;;;17.96;100.00;101687.81;6301901;28;20052;-74
2023/08/17 02:50:08;;;;;;;2.08;1.08;;;;;;;17.98;100.00;101687.69;6301896;28;20052;-74
2023/08/17 02:53:09;;;;;;;3.17;0.68;;;;;;;17.99;100.00;101695.59;6301889;28;20045;-74
2023/08/17 02:56:12;;;;;;;1.42;1.00;;;;;;;17.98;100.00;101687.69;6307080;28;20341;-74
2023/08/17 02:59:14;;;;;;;2.45;1.10;;;;;;;17.97;100.00;101683.34;6303909;28;20056;-73
2023/08/17 03:02:15;;;;;;;1.90;1.00;;;;;;;17.96;100.00;101676.34;6301551;28;20048;-74
2023/08/17 03:05:16;;;;;;;6.80;1.13;;;;;;;17.96;100.00;101679.84;6301389;28;20053;-72
2023/08/17 03:08:18;;;;;;;3.50;1.35;;;;;;;17.99;100.00;101673.47;6301210;28;20467;-72
2023/08/17 03:11:21;;;;;;;3.85;1.05;;;;;;;17.92;100.00;101672.19;6313038;28;20349;-72
2023/08/17 03:14:22;;;;;;;5.55;0.98;;;;;;;17.89;100.00;101677.69;6302281;28;20045;-74
2023/08/17 03:17:23;;;;;;;4.45;1.08;;;;;;;17.84;100.00;101672.69;6300878;28;20048;-73
2023/08/17 03:20:25;;;;;;;3.78;1.30;;;;;;;17.77;100.00;101665.28;6300461;28;20356;-73
2023/08/17 03:23:26;;;;;;;2.20;1.10;;;;;;;17.73;100.00;101667.25;6300913;28;20052;-73
2023/08/17 03:26:29;;;;;;;3.20;1.20;;;;;;;17.65;100.00;101666.91;6300860;28;20151;-73
2023/08/17 03:29:30;;;;;;;3.03;1.20;;;;;;;17.59;100.00;101670.84;6300636;28;20352;-74
2023/08/17 03:32:32;;;;;;;2.17;1.10;;;;;;;17.55;100.00;101671.16;6300992;28;20048;-73
2023/08/17 03:35:33;;;;;;;3.97;1.40;;;;;;;17.50;100.00;101668.81;6300438;28;20048;-74
2023/08/17 03:38:35;;;;;;;2.20;1.08;;;;;;;17.44;100.00;101663.91;6301328;28;20071;-74
2023/08/17 03:41:37;;;;;;;5.30;1.50;;;;;;;17.45;100.00;101662.97;6321104;28;20048;-74
2023/08/17 03:44:39;;;;;;;3.60;1.20;;;;;;;17.44;100.00;101662.13;6300525;28;20455;-73
2023/08/17 03:47:40;;;;;;;4.43;1.15;;;;;;;17.37;100.00;101652.00;6300594;28;20045;-73
2023/08/17 03:50:41;;;;;;;5.00;1.38;;;;;;;17.33;100.00;101656.66;6300660;28;20133;-74
2023/08/17 03:53:43;;;;;;;2.05;1.23;;;;;;;17.32;100.00;101652.31;6300575;28;20049;-73
2023/08/17 03:56:46;;;;;;;2.20;1.10;;;;;;;17.28;100.00;101655.28;6300043;28;20451;-73
2023/08/17 03:59:47;;;;;;;1.33;1.13;;;;;;;17.24;100.00;101646.66;6300493;28;20047;-73
2023/08/17 04:02:48;;;;;;;1.75;1.23;;;;;;;17.22;100.00;101644.13;6300369;28;20055;-73
2023/08/17 04:05:50;;;;;;;5.95;1.85;;;;;;;17.24;100.00;101644.00;6300148;28;20057;-73
2023/08/17 04:08:51;;;;;;;2.33;1.33;;;;;;;17.27;100.00;101640.28;6300335;28;20429;-73
2023/08/17 04:11:54;;;;;;;4.57;1.67;;;;;;;17.22;100.00;101640.59;6300444;28;20052;-73
2023/08/17 04:14:56;;;;;;;2.58;1.40;;;;;;;17.19;100.00;101641.66;6299997;28;20462;-73
2023/08/17 04:17:57;;;;;;;4.60;2.53;;;;;;;17.17;100.00;101643.56;6299980;28;20044;-74
2023/08/17 04:20:58;;;;;;;2.70;1.70;;;;;;;17.19;100.00;101656.75;6300161;28;20080;-73
2023/08/17 04:24:00;;;;;;;3.55;1.42;;;;;;;17.16;100.00;101652.47;6299760;28;20052;-73
2023/08/17 04:27:03;;;;;;;2.25;1.48;;;;;;;17.15;100.00;101658.75;6299995;28;20051;-73
2023/08/17 04:30:06;;;;;;;3.63;1.42;;;;;;;17.19;100.00;101660.25;6320960;22;20048;-70
2023/08/17 04:33:08;;;;;;;5.22;1.55;;;;;;;17.22;100.00;101670.69;6302123;28;20051;-71
2023/08/17 04:36:10;;;;;;;1.95;1.35;;;;;;;17.24;100.00;101665.25;6285352;28;20049;-70
2023/08/17 04:39:11;;;;;;;3.75;1.15;;;;;;;17.20;100.00;101667.25;6305102;28;20048;-70
2023/08/17 04:42:14;;;;;;;3.28;1.25;;;;;;;17.20;100.00;101669.06;6304864;28;20519;-71
2023/08/17 04:45:15;;;;;;;3.03;1.48;;;;;;;17.18;100.00;101669.19;6304677;28;20045;-70
2023/08/17 04:48:17;;;;;;;2.42;1.10;;;;;;;17.16;100.00;101671.06;6304520;28;20334;-70
2023/08/17 04:51:18;;;;;;;2.08;1.20;;;;;;;17.13;100.00;101670.44;6304864;28;20048;-70
2023/08/17 04:54:20;;;;;;;3.78;1.50;;;;;;;17.14;100.00;101677.44;6304445;28;20056;-70
2023/08/17 04:57:23;;;;;;;5.68;2.10;;;;;;;17.18;100.00;101693.09;6304382;28;20048;-71
2023/08/17 05:00:27;;;;;;;6.00;1.67;;;;;;;17.12;100.00;101682.00;6304325;28;20111;-71
2023/08/17 05:03:29;;;;;;;4.47;1.27;;;;;;;17.13;100.00;101684.56;6304250;28;20523;-71
2023/08/17 05:06:30;;;;;;;7.18;2.10;;;;;;;17.15;100.00;101689.78;6304159;28;20059;-72
2023/08/17 05:09:32;;;;;;;3.28;1.30;;;;;;;17.16;100.00;101691.47;6304227;28;20459;-72
2023/08/17 05:12:34;;;;;;;2.15;1.30;;;;;;;17.14;100.00;101699.53;6304341;28;20052;-71
2023/08/17 05:15:36;;;;;;;6.88;1.77;;;;;;;17.17;100.00;101687.88;6303888;28;20052;-72
2023/08/17 05:18:37;;;;;;;2.35;1.40;;;;;;;17.13;100.00;101692.53;6303860;28;20451;-71
2023/08/17 05:21:39;;;;;;;4.53;1.50;;;;;;;17.12;100.00;101696.16;6303943;28;20052;-72
2023/08/17 05:24:40;;;;;;;1.83;1.60;;;;;;;17.17;100.00;101696.69;6303365;28;20080;-71
2023/08/17 05:27:43;;;;;;;4.72;1.73;;;;;;;17.16;100.00;101696.78;6303636;28;20351;-72
2023/08/17 05:30:44;;;;;;;2.55;1.42;;;;;;;17.16;100.00;101696.78;6303878;28;20040;-72
2023/08/17 05:33:46;;;;;;;4.28;1.45;;;;;;;17.15;100.00;101695.09;6303860;28;20056;-71
2023/08/17 05:36:48;;;;;;;3.72;1.40;;;;;;;17.15;100.00;101693.28;6303401;28;20052;-71
2023/08/17 05:39:49;;;;;;;1.92;1.13;;;;;;;17.15;100.00;101695.09;6303618;28;20044;-71
2023/08/17 05:42:52;;;;;;;4.57;1.65;;;;;;;17.12;100.00;101698.81;6303074;28;20431;-70
2023/08/17 05:45:53;;;;;;;4.13;1.52;;;;;;;17.16;100.00;101702.09;6303204;28;20060;-70
2023/08/17 05:48:55;;;;;;;1.77;1.30;;;;;;;17.10;100.00;101698.03;6303532;28;20045;-70
2023/08/17 05:51:56;;;;;;;4.97;1.92;;;;;;;17.11;100.00;101697.09;6303551;28;20055;-72
2023/08/17 05:54:58;;;;;;;4.68;1.90;;;;;;;17.13;100.00;101710.28;6303274;28;20056;-71
2023/08/17 05:58:00;;;;;;;5.65;2.10;;;;;;;17.12;100.00;101703.25;6303122;28;20359;-71
2023/08/17 06:01:07;;;;;;;4.20;2.03;;;;;;;17.09;100.00;101706.97;6303276;28;20044;-72
2023/08/17 06:04:08;;;;;;;3.22;1.65;;;;;;;17.09;100.00;101708.78;6302758;28;20053;-71
2023/08/17 06:07:10;;;;;;;6.32;1.58;;;;;;;17.11;100.00;101704.19;6303117;28;20049;-72
2023/08/17 06:10:12;;;;;;;2.28;1.40;;;;;;;17.12;100.00;101709.44;6302785;28;20045;-72
2023/08/17 06:13:15;;;;;;;4.70;1.70;;;;;;;17.21;100.00;101705.28;6302999;28;20053;-72
2023/08/17 06:16:16;;;;;;;5.55;1.63;;;;;;;17.16;100.00;101705.59;6302527;28;20431;-72
2023/08/17 06:19:18;;;;;;;2.08;1.38;;;;;;;17.20;100.00;101708.91;6302681;28;20138;-71
2023/08/17 06:22:19;;;;;;;3.53;1.50;;;;;;;17.19;100.00;101712.53;6302740;28;20052;-71
2023/08/17 06:25:20;;;;;;;3.55;1.40;;;;;;;17.17;100.00;101717.94;6302523;28;20428;-72
2023/08/17 06:28:23;;;;;;;3.20;1.67;;;;;;;17.15;100.00;101722.50;6302341;28;20055;-72
2023/08/17 06:31:27;;;;;;;2.47;1.30;;;;;;;17.15;100.00;101716.34;6301906;28;20059;-72
2023/08/17 06:34:28;;;;;;;1.80;1.60;;;;;;;17.14;100.00;101714.63;6302328;28;20102;-71
2023/08/17 06:37:30;;;;;;;4.57;1.85;;;;;;;17.17;100.00;101717.09;6302336;28;20071;-71
2023/08/17 06:40:31;;;;;;;4.60;1.75;;;;;;;17.18;100.00;101708.16;6290647;28;20041;-72
2023/08/17 06:43:34;;;;;;;9.18;1.67;;;;;;;17.24;100.00;101716.56;6301233;28;20060;-70
2023/08/17 06:46:35;;;;;;;4.30;1.80;;;;;;;17.19;100.00;101710.72;6300842;28;20048;-72
2023/08/17 06:49:37;;;;;;;3.05;1.55;;;;;;;17.23;100.00;101706.06;6301126;28;20508;-72
2023/08/17 06:52:39;;;;;;;2.92;1.73;;;;;;;17.24;100.00;101697.97;6301178;28;20071;-72
2023/08/17 06:55:40;;;;;;;3.90;1.40;;;;;;;17.23;100.00;101700.75;6300367;28;20056;-72
2023/08/17 06:58:43;;;;;;;5.28;2.13;;;;;;;17.25;100.00;101710.31;6301718;28;20048;-71
2023/08/17 07:01:44;;;;;;;2.88;1.70;;;;;;;17.28;100.00;101713.72;6293307;28;20463;-71
2023/08/17 07:04:47;;;;;;;4.10;2.00;;;;;;;17.27;100.00;101712.88;6301257;28;20044;-71
2023/08/17 07:07:48;;;;;;;3.25;2.08;;;;;;;17.22;100.00;101717.66;6301393;28;20518;-71
2023/08/17 07:10:49;;;;;;;2.40;1.67;;;;;;;17.28;100.00;101714.56;6301019;28;20052;-72
2023/08/17 07:13:52;;;;;;;2.60;1.77;;;;;;;17.22;100.00;101721.16;6297405;28;20049;-71
2023/08/17 07:16:54;;;;;;;3.67;2.00;;;;;;;17.24;100.00;101724.53;6300189;28;20052;-72
2023/08/17 07:19:55;;;;;;;3.90;2.00;;;;;;;17.30;100.00;101717.13;6300596;28;20395;-72
2023/08/17 07:22:56;;;;;;;2.10;1.52;;;;;;;17.29;100.00;101723.41;6300912;28;20064;-72
2023/08/17 07:25:58;;;;;;;6.93;1.90;;;;;;;17.30;100.00;101730.41;6298209;28;20141;-72
2023/08/17 07:29:01;;;;;;;1.92;1.70;;;;;;;17.29;100.00;101726.91;6300309;28;20055;-72
2023/08/17 07:32:02;;;;;;;2.20;1.58;;;;;;;17.29;100.00;101729.56;6291557;28;20051;-72
2023/08/17 07:35:05;;;;;;;2.20;1.90;;;;;;;17.34;100.00;101735.41;6300102;28;20363;-72
2023/08/17 07:38:06;;;;;;;3.78;1.80;;;;;;;17.36;100.00;101730.03;6300425;28;20045;-72
2023/08/17 07:41:08;;;;;;;2.70;1.75;;;;;;;17.34;100.00;101737.22;6300017;28;20051;-71
2023/08/17 07:44:11;;;;;;;6.10;1.85;;;;;;;17.34;100.00;101730.09;6297981;28;20040;-71
2023/08/17 07:47:12;;;;;;;2.63;1.77;;;;;;;17.34;100.00;101743.38;6297293;28;20186;-71
2023/08/17 07:50:14;;;;;;;2.65;1.60;;;;;;;17.34;100.00;101748.69;6300326;28;20354;-72
2023/08/17 07:53:15;;;;;;;4.82;1.88;;;;;;;17.35;100.00;101749.56;6300301;28;20055;-72
2023/08/17 07:56:16;;;;;;;6.07;2.00;;;;;;;17.43;100.00;101752.56;6300145;28;20052;-74
2023/08/17 07:59:19;;;;;;;1.88;1.70;;;;;;;17.40;100.00;101766.91;6300102;28;20044;-72
2023/08/17 08:02:21;;;;;;;2.88;1.80;;;;;;;17.31;100.00;101762.22;6300247;28;20050;-72
2023/08/17 08:05:22;;;;;;;4.88;1.55;;;;;;;17.36;100.00;101761.91;6300244;28;20049;-72
2023/08/17 08:08:24;;;;;;;1.75;1.48;;;;;;;17.31;100.00;101764.88;6299786;28;20056;-71
2023/08/17 08:11:27;;;;;;;4.20;1.55;;;;;;;17.31;100.00;101761.34;6299769;28;20041;-71
2023/08/17 08:14:30;;;;;;;1.95;1.45;;;;;;;17.30;100.00;101756.97;6296083;28;20044;-71
2023/08/17 08:17:31;;;;;;;2.38;1.65;;;;;;;17.33;100.00;101765.59;6295946;28;20052;-71
2023/08/17 08:20:33;;;;;;;3.40;1.83;;;;;;;17.29;100.00;101780.03;6300172;28;20049;-72
2023/08/17 08:23:34;;;;;;;4.03;1.38;;;;;;;17.31;100.00;101761.34;6300048;28;20352;-72
2023/08/17 08:26:36;;;;;;;3.38;1.80;;;;;;;17.35;100.00;101768.16;6299957;28;20134;-71
2023/08/17 08:29:39;;;;;;;2.67;1.48;;;;;;;17.37;100.00;101760.94;6299524;28;20452;-71
2023/08/17 08:32:41;;;;;;;5.28;1.70;;;;;;;17.35;100.00;101762.84;6295809;28;20178;-71
2023/08/17 08:35:42;;;;;;;3.88;1.40;;;;;;;17.32;100.00;101755.94;6297995;28;20051;-71
2023/08/17 08:38:43;;;;;;;4.20;1.65;;;;;;;17.31;100.00;101762.22;6299932;28;20052;-72
2023/08/17 08:41:45;;;;;;;2.97;1.58;;;;;;;17.32;100.00;101763.91;6299900;28;20049;-72
2023/08/17 08:44:49;;;;;;;3.65;1.70;;;;;;;17.30;100.00;101767.59;6299472;28;20333;-71
2023/08/17 08:47:51;;;;;;;4.18;1.80;;;;;;;17.32;100.00;101765.72;6299704;28;20063;-72
2023/08/17 08:50:56;;;;;;;2.45;1.50;;;;;;;17.31;100.00;101756.03;6299743;28;20447;-71
2023/08/17 08:54:03;;;;;;;2.25;1.30;;;;;;;17.30;100.00;101754.31;6299503;28;20055;-71
2023/08/17 08:57:09;;;;;;;2.95;1.77;;;;;;;17.28;100.00;101754.44;6299810;28;20360;-70
2023/08/17 09:00:13;;;;;;;2.25;1.25;;;;;;;17.29;100.00;101752.63;6299600;28;20056;-70
2023/08/17 09:03:16;;;;;;;1.88;1.17;;;;;;;17.27;100.00;101750.06;6299537;28;20052;-70
2023/08/17 09:06:19;;;;;;;1.60;0.90;;;;;;;17.27;100.00;101755.38;6299501;28;20049;-70
2023/08/17 09:09:21;;;;;;;1.35;0.90;;;;;;;17.27;100.00;101750.06;6299524;28;20044;-70
2023/08/17 09:12:23;;;;;;;2.17;1.10;;;;;;;17.23;100.00;101752.06;6294323;28;20059;-69
2023/08/17 09:15:26;;;;;;;2.30;1.10;;;;;;;17.20;100.00;101767.34;6296468;28;20055;-69
2023/08/17 09:18:27;;;;;;;1.15;0.90;;;;;;;17.21;100.00;101769.94;6300591;28;20048;-70
2023/08/17 09:21:32;;;;;;;1.20;1.10;;;;;;;17.22;100.00;101763.66;6303951;28;20044;-70
2023/08/17 09:24:38;;;;;;;1.02;0.90;;;;;;;17.18;100.00;101756.84;6303889;28;20044;-70
2023/08/17 09:27:41;;;;;;;0.70;0.70;;;;;;;17.10;100.00;101756.47;6302194;28;20049;-71
2023/08/17 09:30:54;;;;;;;0.60;0.60;;;;;;;17.02;100.00;101761.41;6303772;28;20048;-71
2023/08/17 09:33:56;;;;;;;0.95;0.50;;;;;;;17.02;100.00;101763.22;6303584;28;20063;-69
2023/08/17 09:37:02;;;;;;;2.40;0.85;;;;;;;17.09;100.00;101760.09;6303948;28;20053;-70
2023/08/17 09:40:04;;;;;;;0.70;0.60;;;;;;;17.04;100.00;101758.69;6303538;28;20060;-69
2023/08/17 09:43:06;;;;;;;1.10;0.70;;;;;;;17.07;100.00;101761.13;6303672;28;20045;-70
2023/08/17 09:46:10;;;;;;;0.85;0.80;;;;;;;16.99;100.00;101762.50;6303131;28;20048;-69
2023/08/17 09:49:11;;;;;;;1.13;0.60;;;;;;;16.99;100.00;101751.88;6303387;28;20068;-70
2023/08/17 09:52:13;;;;;;;0.77;0.70;;;;;;;16.97;100.00;101758.22;6303427;28;20053;-70
2023/08/17 09:55:15;;;;;;;1.33;1.13;;;;;;;16.97;100.00;101767.03;6301579;28;20076;-70
2023/08/17 09:58:17;;;;;;;2.28;1.27;;;;;;;16.91;100.00;101762.13;6303050;28;20052;-70
2023/08/17 10:01:20;;;;;;;1.67;1.20;;;;;;;16.96;100.00;101764.47;6303006;28;20044;-70
2023/08/17 10:04:23;;;;;;;2.78;1.13;;;;;;;16.93;100.00;101764.66;6290694;28;20352;-69
2023/08/17 10:07:28;;;;;;;5.20;1.33;;;;;;;16.89;100.00;101763.16;6302797;28;20436;-71
2023/08/17 10:10:30;;;;;;;1.17;1.08;;;;;;;16.88;100.00;101762.31;6303170;28;20049;-71
2023/08/17 10:13:36;;;;;;;2.58;1.05;;;;;;;16.88;100.00;101759.66;6302287;28;20064;-72
2023/08/17 10:16:45;;;;;;;4.20;1.30;;;;;;;16.84;100.00;101744.84;6302632;28;20436;-72
2023/08/17 10:19:51;;;;;;;2.20;1.27;;;;;;;16.85;100.00;101741.28;6302464;28;20040;-72
2023/08/17 10:23:03;;;;;;;1.23;1.00;;;;;;;16.90;100.00;101746.31;6302506;28;20201;-71
2023/08/17 10:26:08;;;;;;;1.77;1.00;;;;;;;16.91;100.00;101754.16;6302294;28;20053;-72
2023/08/17 10:29:10;;;;;;;1.77;1.13;;;;;;;16.92;100.00;101752.34;6334322;22;20048;-73
2023/08/17 10:32:13;;;;;;;2.85;1.20;;;;;;;16.93;100.00;101743.44;6319981;28;20170;-73
2023/08/17 10:35:16;;;;;;;1.95;1.10;;;;;;;16.99;100.00;101748.38;6312294;28;20057;-73
2023/08/17 10:38:18;;;;;;;2.90;1.10;;;;;;;16.98;100.00;101743.97;6323200;28;20386;-74
2023/08/17 10:41:20;;;;;;;2.55;1.20;;;;;;;16.99;100.00;101745.72;6283914;28;20045;-74
2023/08/17 10:44:40;;;;;;;1.15;1.02;;;;;;;17.04;100.00;101748.06;6297631;28;20048;-74
2023/08/17 10:47:43;;;;;;;1.65;1.08;;;;;;;17.05;100.00;101750.63;6299755;28;20485;-73
2023/08/17 10:51:00;;;;;;;1.92;0.98;;;;;;;17.07;100.00;101746.03;6301435;28;20056;-77
2023/08/17 10:54:03;;;;;;;1.73;0.80;;;;;;;17.03;100.00;101752.50;6301687;28;20059;-74
2023/08/17 10:57:30;;;;;;;1.15;1.00;;;;;;;16.98;100.00;101760.75;6301706;28;20052;-73
2023/08/17 11:00:36;;;;;;;1.10;0.95;;;;;;;16.97;100.00;101753.75;6308358;28;20051;-73
2023/08/17 11:03:39;;;;;;;1.77;1.10;;;;;;;17.02;100.00;101763.22;6296075;28;20051;-74
2023/08/17 11:06:43;;;;;;;0.82;0.75;;;;;;;17.02;100.00;101765.88;6300166;28;20440;-74
2023/08/17 11:09:44;;;;;;;1.92;1.30;;;;;;;16.91;100.00;101766.59;6301136;28;20048;-74
2023/08/17 11:12:46;;;;;;;1.00;0.88;;;;;;;16.93;100.00;101773.47;6301355;28;20440;-74
2023/08/17 11:15:48;;;;;;;1.30;1.00;;;;;;;16.95;100.00;101771.59;6300986;28;20052;-74
2023/08/17 11:18:51;;;;;;;1.13;1.02;;;;;;;17.00;100.00;101776.63;6301281;28;20052;-74
2023/08/17 11:21:52;;;;;;;2.15;0.93;;;;;;;16.98;100.00;101767.88;6290052;28;20041;-75
2023/08/17 11:24:54;;;;;;;1.52;1.02;;;;;;;16.97;100.00;101776.81;6292263;28;20044;-73
2023/08/17 11:27:56;;;;;;;2.83;1.35;;;;;;;16.89;100.00;101782.59;6286739;28;20144;-74
2023/08/17 11:30:58;;;;;;;1.05;0.90;;;;;;;16.86;100.00;101782.81;6275627;28;20427;-74
2023/08/17 11:34:01;;;;;;;2.55;0.93;;;;;;;16.86;100.00;101785.47;6280371;28;20052;-74
2023/08/17 11:37:03;;;;;;;1.23;0.73;;;;;;;16.87;100.00;101788.97;6275693;28;20352;-74
2023/08/17 11:40:05;;;;;;;3.20;1.50;;;;;;;16.80;100.00;101792.94;6276003;28;20056;-74
2023/08/17 11:43:07;;;;;;;4.53;1.17;;;;;;;16.81;100.00;101787.56;6275042;28;20060;-73
2023/08/17 11:46:08;;;;;;;0.95;0.68;;;;;;;16.83;100.00;101784.78;6275696;28;20048;-73
2023/08/17 11:49:11;;;;;;;2.05;1.00;;;;;;;16.84;100.00;101789.16;6286662;28;20440;-73
2023/08/17 11:52:13;;;;;;;0.95;0.88;;;;;;;16.81;100.00;101784.06;6300469;28;20048;-73
2023/08/17 11:55:17;;;;;;;1.27;0.80;;;;;;;16.84;100.00;101787.34;6300213;28;20060;-74
2023/08/17 11:58:19;;;;;;;1.65;0.75;;;;;;;16.85;100.00;101788.19;6300280;28;20056;-73
2023/08/17 12:01:20;;;;;;;3.55;1.70;;;;;;;16.91;100.00;101793.13;6300363;28;20055;-74
2023/08/17 12:04:23;;;;;;;2.35;0.90;;;;;;;16.91;100.00;101785.16;6299694;28;20056;-74
2023/08/17 12:07:25;;;;;;;1.00;0.80;;;;;;;16.88;100.00;101785.34;6300338;28;20436;-74
2023/08/17 12:10:28;;;;;;;1.60;1.08;;;;;;;16.86;100.00;101782.81;6299904;28;20049;-73
2023/08/17 12:13:34;;;;;;;1.67;1.05;;;;;;;16.87;100.00;101781.84;6300218;28;20059;-73
2023/08/17 12:16:35;;;;;;;0.90;0.80;;;;;;;16.96;100.00;101780.41;6299848;28;20048;-73
2023/08/17 12:19:38;;;;;;;1.23;0.85;;;;;;;16.98;100.00;101781.16;6300040;28;20372;-73
2023/08/17 12:22:40;;;;;;;1.55;1.05;;;;;;;16.96;100.00;101783.91;6299883;28;20059;-74
2023/08/17 12:25:42;;;;;;;1.38;1.20;;;;;;;16.95;100.00;101782.22;6299762;28;20055;-74
2023/08/17 12:28:43;;;;;;;1.10;0.88;;;;;;;16.97;100.00;101784.75;6299561;28;20052;-74
2023/08/17 12:31:45;;;;;;;1.80;1.20;;;;;;;16.80;100.00;101782.31;6302346;28;20044;-74
2023/08/17 12:34:48;;;;;;;2.97;1.25;;;;;;;16.76;100.00;101776.38;6292541;28;20060;-74
2023/08/17 12:37:50;;;;;;;2.00;0.88;;;;;;;16.85;100.00;101782.88;6291203;28;20053;-75
2023/08/17 12:40:51;;;;;;;1.50;1.40;;;;;;;16.84;100.00;101783.84;6299928;28;20052;-74
2023/08/17 12:43:53;;;;;;;2.03;1.30;;;;;;;16.79;100.00;101781.47;6299558;28;20364;-74
2023/08/17 12:46:55;;;;;;;3.15;1.10;;;;;;;16.81;100.00;101781.41;6299854;28;20059;-74
2023/08/17 12:49:57;;;;;;;1.92;1.05;;;;;;;16.83;100.00;101784.78;6291033;28;20045;-75
2023/08/17 12:52:59;;;;;;;2.60;1.75;;;;;;;16.80;100.00;101774.34;6289743;28;20045;-75
2023/08/17 12:56:00;;;;;;;2.45;1.15;;;;;;;16.78;100.00;101777.13;6304335;28;20439;-75
2023/08/17 12:59:02;;;;;;;3.55;1.33;;;;;;;16.85;100.00;101777.56;6304774;28;20051;-75
2023/08/17 13:02:03;;;;;;;2.65;1.23;;;;;;;16.88;100.00;101774.72;6304132;28;20044;-75
2023/08/17 13:05:06;;;;;;;2.30;1.33;;;;;;;16.92;100.00;101769.13;6280028;28;20049;-74
2023/08/17 13:08:08;;;;;;;2.40;1.40;;;;;;;16.95;100.00;101776.91;6279373;28;20053;-74
2023/08/17 13:11:11;;;;;;;1.50;0.93;;;;;;;16.98;100.00;101767.88;6280042;28;20048;-74
2023/08/17 13:14:12;;;;;;;2.05;1.27;;;;;;;16.99;100.00;101766.94;6279036;28;20045;-74
2023/08/17 13:17:16;;;;;;;2.47;1.00;;;;;;;17.02;100.00;101768.53;6279503;28;20057;-74
2023/08/17 13:20:19;;;;;;;1.83;1.20;;;;;;;17.02;100.00;101766.72;6279124;28;20464;-74
2023/08/17 13:23:21;;;;;;;1.55;1.15;;;;;;;16.99;100.00;101759.84;6279017;28;20053;-74
2023/08/17 13:26:23;;;;;;;2.00;1.67;;;;;;;17.01;100.00;101766.84;6278631;28;20044;-75
2023/08/17 13:29:24;;;;;;;7.53;4.15;;;;;;;17.02;100.00;101761.41;6285875;28;20059;-74
2023/08/17 13:32:26;;;;;;;1.90;1.33;;;;;;;17.01;100.00;101770.34;6303900;28;20444;-74
2023/08/17 13:35:29;;;;;;;2.30;1.30;;;;;;;16.97;100.00;101759.06;6288052;28;20111;-74
2023/08/17 13:38:31;;;;;;;2.67;1.42;;;;;;;16.96;100.00;101761.81;6279030;28;20049;-74
2023/08/17 13:41:32;;;;;;;1.50;1.40;;;;;;;16.93;100.00;101752.25;6287552;28;20170;-74
2023/08/17 13:44:34;;;;;;;1.08;0.98;;;;;;;17.01;100.00;101750.91;6294901;28;20049;-74
2023/08/17 13:47:35;;;;;;;1.92;1.20;;;;;;;17.01;100.00;101750.91;6303339;28;20360;-74
2023/08/17 13:50:39;;;;;;;1.10;1.00;;;;;;;16.97;100.00;101758.22;6302968;28;20041;-75
2023/08/17 13:53:41;;;;;;;1.48;1.15;;;;;;;16.95;100.00;101762.78;6303134;28;20098;-74
2023/08/17 13:56:42;;;;;;;2.45;1.27;;;;;;;16.99;100.00;101757.19;6303009;28;20329;-74
2023/08/17 13:59:44;;;;;;;1.40;1.27;;;;;;;16.97;100.00;101764.38;6303043;28;20056;-75